Terminal Aerodrome Forecast
Issued by NWS Wilmington, OH

Current Version | Previous Version | Graphics & Text | Print | Product List | Glossary On
Versions: 1 2 3 4 5 6 7 8 9 10 11 12 13 14 15 16 17 18 19 20 21 22 23 24 25 26
000
FTUS41 KILN 211300 AAA
TAFDAY
TAF AMD
KDAY 211304Z 2113/2212 26014G20KT P6SM SCT014 BKN020 BKN035
     FM211500 27016G26KT P6SM SCT040
     FM211900 28018G30KT P6SM BKN040
     FM220000 31014KT P6SM OVC018=

USA.gov is the U.S. government's official web portal to all federal, state and local government web resources and services.